sensor_id;sensor_type;location;lat;lon;timestamp;temperature;humidity
44069;DHT22;29738;51.234;5.484;2024-02-23T00:01:15;5.60;99.90
44069;DHT22;29738;51.234;5.484;2024-02-23T00:03:41;5.60;99.90
44069;DHT22;29738;51.234;5.484;2024-02-23T00:06:07;5.60;99.90
44069;DHT22;29738;51.234;5.484;2024-02-23T00:08:34;5.60;99.90
44069;DHT22;29738;51.234;5.484;2024-02-23T00:11:00;5.70;99.90
44069;DHT22;29738;51.234;5.484;2024-02-23T00:13:28;5.70;99.90
44069;DHT22;29738;51.234;5.484;2024-02-23T00:15:54;5.70;99.90
44069;DHT22;29738;51.234;5.484;2024-02-23T00:18:20;5.80;99.90
44069;DHT22;29738;51.234;5.484;2024-02-23T00:20:48;5.70;99.90
44069;DHT22;29738;51.234;5.484;2024-02-23T00:23:13;5.80;99.90
44069;DHT22;29738;51.234;5.484;2024-02-23T00:25:39;5.80;99.90
44069;DHT22;29738;51.234;5.484;2024-02-23T00:28:05;5.80;99.90
44069;DHT22;29738;51.234;5.484;2024-02-23T00:30:31;5.90;99.90
44069;DHT22;29738;51.234;5.484;2024-02-23T00:32:57;6.00;99.90
44069;DHT22;29738;51.234;5.484;2024-02-23T00:35:22;5.90;99.90
44069;DHT22;29738;51.234;5.484;2024-02-23T00:37:48;5.90;99.90
44069;DHT22;29738;51.234;5.484;2024-02-23T00:40:14;5.90;99.90
44069;DHT22;29738;51.234;5.484;2024-02-23T00:42:40;5.90;99.90
44069;DHT22;29738;51.234;5.484;2024-02-23T00:45:06;6.00;99.90
44069;DHT22;29738;51.234;5.484;2024-02-23T00:47:32;6.00;99.90
44069;DHT22;29738;51.234;5.484;2024-02-23T00:49:58;5.90;99.90
44069;DHT22;29738;51.234;5.484;2024-02-23T00:52:23;6.00;99.90
44069;DHT22;29738;51.234;5.484;2024-02-23T00:54:49;6.00;99.90
44069;DHT22;29738;51.234;5.484;2024-02-23T00:57:15;5.90;99.90
44069;DHT22;29738;51.234;5.484;2024-02-23T00:59:41;5.80;99.90
44069;DHT22;29738;51.234;5.484;2024-02-23T01:02:07;5.80;99.90
44069;DHT22;29738;51.234;5.484;2024-02-23T01:04:33;5.70;99.90
44069;DHT22;29738;51.234;5.484;2024-02-23T01:06:58;5.80;99.90
44069;DHT22;29738;51.234;5.484;2024-02-23T01:09:25;5.80;99.90
44069;DHT22;29738;51.234;5.484;2024-02-23T01:11:51;5.80;99.90
44069;DHT22;29738;51.234;5.484;2024-02-23T01:14:16;5.80;99.90
44069;DHT22;29738;51.234;5.484;2024-02-23T01:16:42;5.80;99.90
44069;DHT22;29738;51.234;5.484;2024-02-23T01:19:08;5.80;99.90
44069;DHT22;29738;51.234;5.484;2024-02-23T01:21:34;5.80;99.90
44069;DHT22;29738;51.234;5.484;2024-02-23T01:24:00;5.90;99.90
44069;DHT22;29738;51.234;5.484;2024-02-23T01:26:29;5.90;99.90
44069;DHT22;29738;51.234;5.484;2024-02-23T01:28:55;5.90;99.90
44069;DHT22;29738;51.234;5.484;2024-02-23T01:31:22;5.80;99.90
44069;DHT22;29738;51.234;5.484;2024-02-23T01:33:47;5.90;99.90
44069;DHT22;29738;51.234;5.484;2024-02-23T01:36:15;5.80;99.90
44069;DHT22;29738;51.234;5.484;2024-02-23T01:38:43;5.70;99.90
44069;DHT22;29738;51.234;5.484;2024-02-23T01:41:09;5.80;99.90
44069;DHT22;29738;51.234;5.484;2024-02-23T01:43:37;5.70;99.90
44069;DHT22;29738;51.234;5.484;2024-02-23T01:46:03;5.70;99.90
44069;DHT22;29738;51.234;5.484;2024-02-23T01:48:30;5.70;99.90
44069;DHT22;29738;51.234;5.484;2024-02-23T01:50:57;5.60;99.90
44069;DHT22;29738;51.234;5.484;2024-02-23T01:53:23;5.60;99.90
44069;DHT22;29738;51.234;5.484;2024-02-23T01:55:51;5.60;99.90
44069;DHT22;29738;51.234;5.484;2024-02-23T01:58:18;5.60;99.90
44069;DHT22;29738;51.234;5.484;2024-02-23T02:00:43;5.50;99.90
44069;DHT22;29738;51.234;5.484;2024-02-23T02:03:09;5.60;99.90
44069;DHT22;29738;51.234;5.484;2024-02-23T02:05:36;5.50;99.90
44069;DHT22;29738;51.234;5.484;2024-02-23T02:08:03;5.50;99.90
44069;DHT22;29738;51.234;5.484;2024-02-23T02:10:29;5.50;99.90
44069;DHT22;29738;51.234;5.484;2024-02-23T02:12:54;5.50;99.90
44069;DHT22;29738;51.234;5.484;2024-02-23T02:15:20;5.50;99.90
44069;DHT22;29738;51.234;5.484;2024-02-23T02:17:48;5.50;99.90
44069;DHT22;29738;51.234;5.484;2024-02-23T02:20:14;5.40;99.90
44069;DHT22;29738;51.234;5.484;2024-02-23T02:22:40;5.40;99.90
44069;DHT22;29738;51.234;5.484;2024-02-23T02:25:06;5.40;99.90
44069;DHT22;29738;51.234;5.484;2024-02-23T02:27:32;5.40;99.90
44069;DHT22;29738;51.234;5.484;2024-02-23T02:29:58;5.40;99.90
44069;DHT22;29738;51.234;5.484;2024-02-23T02:32:24;5.30;99.90
44069;DHT22;29738;51.234;5.484;2024-02-23T02:34:50;5.10;99.90
44069;DHT22;29738;51.234;5.484;2024-02-23T02:37:15;5.40;99.90
44069;DHT22;29738;51.234;5.484;2024-02-23T02:39:41;5.50;99.90
44069;DHT22;29738;51.234;5.484;2024-02-23T02:42:07;5.40;99.90
44069;DHT22;29738;51.234;5.484;2024-02-23T02:44:33;5.60;99.90
44069;DHT22;29738;51.234;5.484;2024-02-23T02:46:59;5.50;99.90
44069;DHT22;29738;51.234;5.484;2024-02-23T02:49:25;5.50;99.90
44069;DHT22;29738;51.234;5.484;2024-02-23T02:51:50;5.50;99.90
44069;DHT22;29738;51.234;5.484;2024-02-23T02:54:17;5.30;99.90
44069;DHT22;29738;51.234;5.484;2024-02-23T02:56:44;5.40;99.90
44069;DHT22;29738;51.234;5.484;2024-02-23T02:59:11;5.40;99.90
44069;DHT22;29738;51.234;5.484;2024-02-23T03:01:37;5.40;99.90
44069;DHT22;29738;51.234;5.484;2024-02-23T03:04:03;5.50;99.90
44069;DHT22;29738;51.234;5.484;2024-02-23T03:06:29;5.60;99.90
44069;DHT22;29738;51.234;5.484;2024-02-23T03:08:55;5.60;99.90
44069;DHT22;29738;51.234;5.484;2024-02-23T03:11:20;5.50;99.90
44069;DHT22;29738;51.234;5.484;2024-02-23T03:13:46;5.50;99.90
44069;DHT22;29738;51.234;5.484;2024-02-23T03:16:17;5.30;99.90
44069;DHT22;29738;51.234;5.484;2024-02-23T03:18:44;5.40;99.90
44069;DHT22;29738;51.234;5.484;2024-02-23T03:21:09;5.50;99.90
44069;DHT22;29738;51.234;5.484;2024-02-23T03:23:38;5.50;99.90
44069;DHT22;29738;51.234;5.484;2024-02-23T03:26:06;5.40;99.90
44069;DHT22;29738;51.234;5.484;2024-02-23T03:28:32;5.50;99.90
44069;DHT22;29738;51.234;5.484;2024-02-23T03:30:58;5.50;99.90
44069;DHT22;29738;51.234;5.484;2024-02-23T03:33:24;5.40;99.90
44069;DHT22;29738;51.234;5.484;2024-02-23T03:35:49;5.50;99.90
44069;DHT22;29738;51.234;5.484;2024-02-23T03:38:15;5.40;99.90
44069;DHT22;29738;51.234;5.484;2024-02-23T03:40:41;5.40;99.90
44069;DHT22;29738;51.234;5.484;2024-02-23T03:43:07;5.40;99.90
44069;DHT22;29738;51.234;5.484;2024-02-23T03:45:33;5.30;99.90
44069;DHT22;29738;51.234;5.484;2024-02-23T03:47:59;5.20;99.90
44069;DHT22;29738;51.234;5.484;2024-02-23T03:50:25;5.30;99.90
44069;DHT22;29738;51.234;5.484;2024-02-23T03:52:51;5.20;99.90
44069;DHT22;29738;51.234;5.484;2024-02-23T03:55:17;5.20;99.90
44069;DHT22;29738;51.234;5.484;2024-02-23T03:57:43;5.10;99.90
44069;DHT22;29738;51.234;5.484;2024-02-23T04:00:12;5.20;99.90
44069;DHT22;29738;51.234;5.484;2024-02-23T04:02:38;5.30;99.90
44069;DHT22;29738;51.234;5.484;2024-02-23T04:05:05;5.20;99.90
44069;DHT22;29738;51.234;5.484;2024-02-23T04:07:31;5.30;99.90
44069;DHT22;29738;51.234;5.484;2024-02-23T04:09:57;5.30;99.90
44069;DHT22;29738;51.234;5.484;2024-02-23T04:12:22;5.30;99.90
44069;DHT22;29738;51.234;5.484;2024-02-23T04:14:48;5.40;99.90
44069;DHT22;29738;51.234;5.484;2024-02-23T04:17:14;5.10;99.90
44069;DHT22;29738;51.234;5.484;2024-02-23T04:19:41;5.20;99.90
44069;DHT22;29738;51.234;5.484;2024-02-23T04:22:08;5.30;99.90
44069;DHT22;29738;51.234;5.484;2024-02-23T04:24:37;5.20;99.90
44069;DHT22;29738;51.234;5.484;2024-02-23T04:27:04;5.30;99.90
44069;DHT22;29738;51.234;5.484;2024-02-23T04:29:31;5.40;99.90
44069;DHT22;29738;51.234;5.484;2024-02-23T04:34:35;5.50;99.90
44069;DHT22;29738;51.234;5.484;2024-02-23T04:37:03;5.50;99.90
44069;DHT22;29738;51.234;5.484;2024-02-23T04:39:32;5.50;99.90
44069;DHT22;29738;51.234;5.484;2024-02-23T04:41:57;5.70;99.90
44069;DHT22;29738;51.234;5.484;2024-02-23T04:44:23;5.60;99.90
44069;DHT22;29738;51.234;5.484;2024-02-23T04:46:49;5.60;99.90
44069;DHT22;29738;51.234;5.484;2024-02-23T04:49:15;5.70;99.90
44069;DHT22;29738;51.234;5.484;2024-02-23T04:51:41;5.60;99.90
44069;DHT22;29738;51.234;5.484;2024-02-23T04:54:06;5.70;99.90
44069;DHT22;29738;51.234;5.484;2024-02-23T04:56:33;5.70;99.90
44069;DHT22;29738;51.234;5.484;2024-02-23T04:58:59;5.60;99.90
44069;DHT22;29738;51.234;5.484;2024-02-23T05:01:43;5.70;99.90
44069;DHT22;29738;51.234;5.484;2024-02-23T05:04:09;5.70;99.90
44069;DHT22;29738;51.234;5.484;2024-02-23T05:06:35;5.80;99.90
44069;DHT22;29738;51.234;5.484;2024-02-23T05:09:02;5.90;99.90
44069;DHT22;29738;51.234;5.484;2024-02-23T05:11:30;5.90;99.90
44069;DHT22;29738;51.234;5.484;2024-02-23T05:13:56;5.90;99.90
44069;DHT22;29738;51.234;5.484;2024-02-23T05:16:22;5.80;99.90
44069;DHT22;29738;51.234;5.484;2024-02-23T05:18:48;5.90;99.90
44069;DHT22;29738;51.234;5.484;2024-02-23T05:21:18;6.00;99.90
44069;DHT22;29738;51.234;5.484;2024-02-23T05:23:44;5.80;99.90
44069;DHT22;29738;51.234;5.484;2024-02-23T05:26:12;5.90;99.90
44069;DHT22;29738;51.234;5.484;2024-02-23T05:28:38;5.90;99.90
44069;DHT22;29738;51.234;5.484;2024-02-23T05:31:04;5.90;99.90
44069;DHT22;29738;51.234;5.484;2024-02-23T05:33:30;5.90;99.90
44069;DHT22;29738;51.234;5.484;2024-02-23T05:35:56;5.90;99.90
44069;DHT22;29738;51.234;5.484;2024-02-23T05:38:23;5.80;99.90
44069;DHT22;29738;51.234;5.484;2024-02-23T05:40:49;5.80;99.90
44069;DHT22;29738;51.234;5.484;2024-02-23T05:43:15;5.80;99.90
44069;DHT22;29738;51.234;5.484;2024-02-23T05:45:41;5.90;99.90
44069;DHT22;29738;51.234;5.484;2024-02-23T05:48:07;6.00;99.90
44069;DHT22;29738;51.234;5.484;2024-02-23T05:50:33;6.00;99.90
44069;DHT22;29738;51.234;5.484;2024-02-23T05:52:59;5.90;99.90
44069;DHT22;29738;51.234;5.484;2024-02-23T05:55:30;6.00;99.90
44069;DHT22;29738;51.234;5.484;2024-02-23T05:57:56;6.00;99.90
44069;DHT22;29738;51.234;5.484;2024-02-23T06:00:22;5.90;99.90
44069;DHT22;29738;51.234;5.484;2024-02-23T06:02:50;6.00;99.90
44069;DHT22;29738;51.234;5.484;2024-02-23T06:05:21;6.00;99.90
44069;DHT22;29738;51.234;5.484;2024-02-23T06:07:46;6.00;99.90
44069;DHT22;29738;51.234;5.484;2024-02-23T06:10:13;6.10;99.90
44069;DHT22;29738;51.234;5.484;2024-02-23T06:12:40;6.10;99.90
44069;DHT22;29738;51.234;5.484;2024-02-23T06:15:06;6.20;99.90
44069;DHT22;29738;51.234;5.484;2024-02-23T06:20:09;6.00;99.90
44069;DHT22;29738;51.234;5.484;2024-02-23T06:22:35;5.90;99.90
44069;DHT22;29738;51.234;5.484;2024-02-23T06:25:01;6.00;99.90
44069;DHT22;29738;51.234;5.484;2024-02-23T06:27:27;6.00;99.90
44069;DHT22;29738;51.234;5.484;2024-02-23T06:29:53;6.00;99.90
44069;DHT22;29738;51.234;5.484;2024-02-23T06:32:22;6.00;99.90
44069;DHT22;29738;51.234;5.484;2024-02-23T06:34:48;6.00;99.90
44069;DHT22;29738;51.234;5.484;2024-02-23T06:37:13;5.80;99.90
44069;DHT22;29738;51.234;5.484;2024-02-23T06:39:39;6.00;99.90
44069;DHT22;29738;51.234;5.484;2024-02-23T06:42:06;6.00;99.90
44069;DHT22;29738;51.234;5.484;2024-02-23T06:44:33;6.00;99.90
